createdAt,value
2023-05-02T00:00:33.022Z,11.80
2023-05-02T00:02:39.033Z,11.80
2023-05-02T00:04:44.298Z,11.70
2023-05-02T00:06:51.825Z,11.80
2023-05-02T00:08:56.997Z,11.80
2023-05-02T00:11:06.930Z,11.80
2023-05-02T00:13:13.468Z,11.90
2023-05-02T00:15:23.471Z,12.00
2023-05-02T00:17:28.905Z,12.00
2023-05-02T00:19:34.026Z,12.00
2023-05-02T00:21:41.169Z,12.10
2023-05-02T00:23:47.059Z,11.90
2023-05-02T00:26:16.484Z,11.20
2023-05-02T00:28:21.524Z,10.90
2023-05-02T00:30:29.032Z,11.50
2023-05-02T00:32:34.879Z,11.30
2023-05-02T00:34:40.275Z,11.60
2023-05-02T00:36:45.107Z,11.70
2023-05-02T00:38:52.194Z,11.70
2023-05-02T00:40:59.474Z,11.80
2023-05-02T00:43:04.723Z,11.90
2023-05-02T00:45:15.720Z,11.90
2023-05-02T00:47:25.499Z,11.80
2023-05-02T00:49:31.249Z,11.80
2023-05-02T00:51:38.407Z,11.90
2023-05-02T00:53:46.185Z,11.90
2023-05-02T00:55:51.222Z,11.70
2023-05-02T00:57:56.862Z,11.60
2023-05-02T01:00:02.495Z,11.70
2023-05-02T01:02:32.076Z,11.70
2023-05-02T01:04:46.686Z,11.70
2023-05-02T01:07:02.574Z,11.60
2023-05-02T01:09:25.055Z,11.50
2023-05-02T01:11:38.160Z,11.50
2023-05-02T01:13:45.487Z,11.20
2023-05-02T01:15:52.887Z,11.10
2023-05-02T01:18:04.543Z,11.30
2023-05-02T01:20:14.670Z,11.40
2023-05-02T01:22:20.740Z,11.30
2023-05-02T01:24:32.352Z,11.40
2023-05-02T01:26:53.845Z,11.30
2023-05-02T01:29:03.514Z,10.80
2023-05-02T01:31:09.300Z,10.90
2023-05-02T01:33:17.153Z,11.10
2023-05-02T01:35:26.336Z,11.30
2023-05-02T01:37:32.160Z,11.30
2023-05-02T01:39:42.411Z,11.30
2023-05-02T01:41:48.473Z,11.20
2023-05-02T01:44:04.109Z,11.20
2023-05-02T01:46:13.820Z,11.00
2023-05-02T01:48:24.466Z,10.80
2023-05-02T01:50:29.730Z,10.80
2023-05-02T01:52:38.948Z,10.80
2023-05-02T01:54:44.245Z,10.20
2023-05-02T01:56:50.185Z,10.00
2023-05-02T01:58:56.353Z,10.40
2023-05-02T02:01:04.386Z,10.50
2023-05-02T02:03:13.410Z,10.30
2023-05-02T02:05:21.435Z,10.60
2023-05-02T02:07:31.747Z,10.50
2023-05-02T02:09:37.102Z,10.10
2023-05-02T02:11:50.436Z,9.80
2023-05-02T02:14:00.952Z,9.80
2023-05-02T02:16:09.409Z,9.70
2023-05-02T02:18:27.949Z,9.60
2023-05-02T02:20:33.391Z,10.00
2023-05-02T02:22:45.539Z,10.40
2023-05-02T02:24:54.403Z,10.60
2023-05-02T02:26:59.427Z,10.60
2023-05-02T02:29:05.299Z,10.40
2023-05-02T02:31:10.227Z,9.80
2023-05-02T02:33:22.654Z,10.10
2023-05-02T02:35:37.674Z,10.40
2023-05-02T02:37:48.918Z,10.20
2023-05-02T02:40:00.629Z,10.20
2023-05-02T02:42:16.857Z,9.80
2023-05-02T02:44:32.864Z,10.00
2023-05-02T02:46:49.761Z,9.90
2023-05-02T02:49:00.387Z,10.20
2023-05-02T02:51:14.199Z,10.20
2023-05-02T02:53:23.424Z,10.40
2023-05-02T02:55:40.064Z,10.00
2023-05-02T02:57:54.408Z,9.70
2023-05-02T03:00:06.880Z,9.50
2023-05-02T03:02:15.554Z,9.90
2023-05-02T03:04:23.598Z,9.70
2023-05-02T03:06:34.303Z,10.10
2023-05-02T03:08:43.508Z,10.00
2023-05-02T03:10:53.398Z,9.80
2023-05-02T03:12:58.234Z,9.70
2023-05-02T03:15:16.579Z,9.90
2023-05-02T03:17:24.985Z,10.10
2023-05-02T03:19:31.719Z,10.20
2023-05-02T03:21:44.295Z,10.10
2023-05-02T03:23:55.073Z,10.10
2023-05-02T03:26:00.318Z,9.40
2023-05-02T03:28:05.340Z,9.10
2023-05-02T03:30:12.421Z,9.20
2023-05-02T03:32:17.238Z,9.00
2023-05-02T03:34:22.941Z,9.20
2023-05-02T03:36:31.719Z,9.60
2023-05-02T03:38:39.672Z,9.80
2023-05-02T03:40:49.104Z,9.80
2023-05-02T03:42:56.240Z,9.60
2023-05-02T03:45:08.547Z,9.70
2023-05-02T03:47:15.159Z,9.80
2023-05-02T03:49:22.452Z,9.90
2023-05-02T03:51:32.135Z,9.70
2023-05-02T03:53:39.568Z,9.40
2023-05-02T03:55:45.816Z,9.00
2023-05-02T03:57:57.617Z,9.10
2023-05-02T04:00:02.701Z,9.50
2023-05-02T04:02:17.124Z,9.70
2023-05-02T04:04:25.586Z,9.30
2023-05-02T04:06:32.692Z,9.40
2023-05-02T04:08:44.932Z,9.60
2023-05-02T04:10:50.304Z,9.50
2023-05-02T04:12:55.523Z,9.50
2023-05-02T04:15:01.294Z,9.70
2023-05-02T04:17:08.580Z,9.70
2023-05-02T04:19:31.060Z,9.60
2023-05-02T04:21:39.494Z,9.60
2023-05-02T04:23:48.383Z,9.90
2023-05-02T04:25:56.722Z,9.80
2023-05-02T04:28:09.513Z,9.70
2023-05-02T04:30:15.878Z,9.80
2023-05-02T04:32:26.356Z,9.90
2023-05-02T04:34:32.943Z,9.90
2023-05-02T04:36:40.298Z,9.90
2023-05-02T04:38:50.241Z,9.80
2023-05-02T04:40:56.170Z,9.30
2023-05-02T04:43:12.363Z,9.30
2023-05-02T04:45:26.281Z,9.20
2023-05-02T04:47:34.024Z,9.40
2023-05-02T04:49:38.947Z,9.60
2023-05-02T04:51:45.917Z,9.80
2023-05-02T04:53:54.823Z,9.70
2023-05-02T04:56:00.529Z,9.90
2023-05-02T04:58:07.366Z,9.90
2023-05-02T05:00:13.429Z,9.90
2023-05-02T05:02:18.351Z,10.00
2023-05-02T05:04:24.638Z,9.80
2023-05-02T05:06:29.596Z,9.60
2023-05-02T05:08:35.386Z,9.40
2023-05-02T05:10:45.076Z,9.40
2023-05-02T05:12:57.320Z,9.70
2023-05-02T05:15:03.303Z,9.70
2023-05-02T05:17:11.158Z,9.90
2023-05-02T05:19:16.528Z,10.00
2023-05-02T05:21:22.463Z,10.10
2023-05-02T05:23:28.584Z,10.20
2023-05-02T05:25:36.952Z,10.20
2023-05-02T05:27:44.511Z,10.20
2023-05-02T05:29:52.447Z,10.10
2023-05-02T05:32:00.721Z,10.10
2023-05-02T05:34:06.863Z,9.90
2023-05-02T05:36:16.533Z,10.10
2023-05-02T05:38:24.066Z,10.00
2023-05-02T05:40:29.468Z,10.30
2023-05-02T05:42:40.784Z,10.20
2023-05-02T05:44:53.908Z,10.30
2023-05-02T05:46:59.131Z,10.50
2023-05-02T05:49:05.050Z,10.60
2023-05-02T05:51:10.181Z,10.70
2023-05-02T05:53:18.174Z,10.80
2023-05-02T05:55:26.372Z,10.80
2023-05-02T05:57:31.211Z,10.90
2023-05-02T05:59:39.628Z,10.90
2023-05-02T06:01:49.760Z,11.00
2023-05-02T06:03:57.279Z,11.10
2023-05-02T06:06:04.327Z,11.20
2023-05-02T06:08:09.228Z,11.20
2023-05-02T06:10:14.345Z,11.30
2023-05-02T06:12:22.795Z,11.30
2023-05-02T06:14:27.977Z,11.30
2023-05-02T06:16:35.063Z,11.30
2023-05-02T06:18:47.668Z,11.30
2023-05-02T06:20:53.060Z,11.30
2023-05-02T06:22:58.253Z,11.40
2023-05-02T06:25:05.322Z,11.50
2023-05-02T06:27:15.758Z,11.50
2023-05-02T06:29:20.571Z,11.50
2023-05-02T06:31:25.792Z,11.60
2023-05-02T06:33:30.741Z,11.60
2023-05-02T06:35:39.319Z,11.70
2023-05-02T06:37:44.410Z,11.70
2023-05-02T06:39:50.728Z,11.70
2023-05-02T06:42:00.089Z,11.70
2023-05-02T06:44:07.106Z,11.70
2023-05-02T06:46:12.277Z,11.70
2023-05-02T06:48:20.161Z,11.70
2023-05-02T06:50:25.155Z,11.80
2023-05-02T06:52:36.329Z,11.90
2023-05-02T06:54:42.561Z,11.80
2023-05-02T06:56:48.285Z,11.80
2023-05-02T06:58:54.990Z,11.80
2023-05-02T07:01:02.158Z,11.80
2023-05-02T07:03:08.193Z,11.90
2023-05-02T07:05:17.201Z,11.90
2023-05-02T07:07:22.839Z,11.90
2023-05-02T07:09:30.667Z,12.00
2023-05-02T07:11:39.029Z,12.10
2023-05-02T07:13:44.509Z,12.30
2023-05-02T07:15:49.364Z,12.30
2023-05-02T07:17:54.922Z,12.40
2023-05-02T07:20:00.588Z,12.40
2023-05-02T07:22:08.401Z,12.40
2023-05-02T07:24:15.902Z,12.60
2023-05-02T07:26:23.710Z,12.60
2023-05-02T07:28:28.984Z,12.80
2023-05-02T07:30:35.561Z,12.90
2023-05-02T07:32:40.871Z,12.90
2023-05-02T07:34:47.696Z,13.10
2023-05-02T07:36:52.976Z,12.90
2023-05-02T07:38:58.016Z,12.70
2023-05-02T07:41:05.475Z,12.80
2023-05-02T07:43:14.489Z,12.80
2023-05-02T07:45:22.219Z,12.70
2023-05-02T07:47:27.952Z,12.70
2023-05-02T07:49:33.407Z,12.80
2023-05-02T07:51:45.975Z,12.70
2023-05-02T07:53:58.792Z,12.70
2023-05-02T07:56:03.704Z,12.80
2023-05-02T07:58:11.612Z,12.80
2023-05-02T08:00:21.273Z,12.90
2023-05-02T08:02:28.690Z,12.80
2023-05-02T08:04:34.498Z,12.80
2023-05-02T08:06:39.679Z,12.80
2023-05-02T08:08:46.524Z,12.90
2023-05-02T08:10:53.189Z,13.00
2023-05-02T08:12:59.618Z,13.00
2023-05-02T08:15:09.619Z,12.90
2023-05-02T08:17:17.356Z,12.90
2023-05-02T08:19:23.677Z,12.90
2023-05-02T08:21:32.369Z,12.90
2023-05-02T08:23:40.308Z,13.00
2023-05-02T08:25:45.567Z,12.90
2023-05-02T08:27:51.473Z,12.90
2023-05-02T08:29:58.562Z,12.90
2023-05-02T08:32:05.333Z,13.00
2023-05-02T08:34:14.472Z,13.00
2023-05-02T08:36:22.590Z,13.00
2023-05-02T08:38:29.816Z,13.00
2023-05-02T08:40:42.329Z,13.10
2023-05-02T08:42:56.670Z,13.00
2023-05-02T08:45:02.808Z,13.10
2023-05-02T08:47:08.464Z,13.10
2023-05-02T08:49:18.770Z,13.20
2023-05-02T08:51:27.292Z,13.30
2023-05-02T08:53:35.680Z,13.20
2023-05-02T08:55:42.777Z,13.30
2023-05-02T08:57:49.427Z,13.40
2023-05-02T08:59:54.264Z,13.30
2023-05-02T09:02:04.559Z,13.40
2023-05-02T09:04:09.539Z,13.20
2023-05-02T09:06:21.168Z,13.30
2023-05-02T09:08:26.582Z,13.40
2023-05-02T09:10:33.631Z,13.50
2023-05-02T09:12:39.757Z,13.30
2023-05-02T09:14:46.366Z,13.50
2023-05-02T09:16:51.206Z,13.60
2023-05-02T09:18:57.636Z,13.80
2023-05-02T09:21:03.809Z,13.80
2023-05-02T09:23:11.698Z,13.90
2023-05-02T09:25:17.688Z,13.90
2023-05-02T09:27:25.103Z,13.90
2023-05-02T09:29:36.065Z,14.20
2023-05-02T09:33:50.580Z,14.40
2023-05-02T09:35:59.331Z,14.30
2023-05-02T09:38:04.472Z,14.40
2023-05-02T09:40:13.345Z,14.40
2023-05-02T09:42:33.834Z,14.40
2023-05-02T09:44:42.709Z,14.30
2023-05-02T09:46:57.481Z,14.10
2023-05-02T09:49:02.329Z,13.90
2023-05-02T09:51:07.448Z,13.80
2023-05-02T09:53:13.865Z,13.80
2023-05-02T09:55:29.743Z,13.90
2023-05-02T09:57:43.265Z,14.30
2023-05-02T09:59:59.395Z,14.60
2023-05-02T10:02:07.834Z,14.40
2023-05-02T10:04:16.693Z,14.10
2023-05-02T10:06:23.699Z,14.20
2023-05-02T10:08:32.636Z,14.20
2023-05-02T10:10:44.977Z,14.10
2023-05-02T10:12:55.718Z,14.10
2023-05-02T10:15:03.452Z,14.00
2023-05-02T10:17:14.792Z,14.10
2023-05-02T10:19:24.541Z,14.30
2023-05-02T10:21:30.900Z,14.40
2023-05-02T10:23:36.269Z,14.60
2023-05-02T10:25:45.514Z,14.90
2023-05-02T10:27:51.936Z,14.90
2023-05-02T10:29:57.259Z,14.60
2023-05-02T10:32:05.887Z,14.60
2023-05-02T10:34:13.569Z,15.00
2023-05-02T10:36:21.013Z,15.10
2023-05-02T10:38:26.807Z,15.20
2023-05-02T10:40:31.923Z,14.90
2023-05-02T10:42:43.040Z,15.00
2023-05-02T10:44:49.100Z,14.90
2023-05-02T10:46:56.323Z,15.20
2023-05-02T10:49:06.130Z,15.40
2023-05-02T10:51:14.932Z,15.20
2023-05-02T10:53:32.035Z,15.20
2023-05-02T10:55:37.099Z,15.10
2023-05-02T10:58:12.908Z,14.30
2023-05-02T11:00:28.223Z,13.80
2023-05-02T11:02:53.396Z,13.50
2023-05-02T11:05:04.761Z,13.20
2023-05-02T11:07:25.188Z,13.30
2023-05-02T11:09:39.674Z,13.50
2023-05-02T11:11:46.537Z,13.40
2023-05-02T11:13:52.218Z,13.40
2023-05-02T11:16:00.292Z,13.50
2023-05-02T11:18:07.992Z,13.70
2023-05-02T11:20:32.516Z,13.70
2023-05-02T11:22:38.852Z,13.70
2023-05-02T11:24:45.373Z,14.00
2023-05-02T11:26:50.458Z,14.00
2023-05-02T11:28:55.869Z,14.00
2023-05-02T11:31:03.546Z,14.20
2023-05-02T11:33:20.250Z,14.40
2023-05-02T11:35:27.004Z,14.80
2023-05-02T11:37:32.588Z,14.90
2023-05-02T11:39:38.983Z,15.30
2023-05-02T11:41:47.640Z,15.40
2023-05-02T11:44:11.351Z,15.20
2023-05-02T11:46:21.439Z,15.50
2023-05-02T11:48:30.178Z,15.20
2023-05-02T11:50:35.801Z,14.80
2023-05-02T11:52:44.129Z,14.60
2023-05-02T11:54:49.532Z,14.50
2023-05-02T11:56:54.384Z,14.40
2023-05-02T11:59:03.611Z,14.40
2023-05-02T12:01:20.241Z,14.30
2023-05-02T12:03:32.769Z,14.10
2023-05-02T12:05:37.852Z,14.40
2023-05-02T12:07:45.790Z,14.40
2023-05-02T12:09:54.971Z,14.30
2023-05-02T12:12:01.086Z,14.10
2023-05-02T12:14:07.838Z,14.10
2023-05-02T12:16:12.967Z,14.10
2023-05-02T12:18:23.544Z,14.30
2023-05-02T12:20:28.696Z,14.50
2023-05-02T12:22:35.379Z,14.60
2023-05-02T12:24:41.299Z,14.40
2023-05-02T12:26:46.394Z,14.40
2023-05-02T12:28:54.914Z,14.50
2023-05-02T12:31:01.783Z,14.50
2023-05-02T12:33:09.362Z,14.60
2023-05-02T12:35:25.739Z,14.80
2023-05-02T12:37:32.250Z,14.80
2023-05-02T12:39:38.286Z,14.80
2023-05-02T12:41:46.461Z,14.70
2023-05-02T12:43:52.526Z,14.90
2023-05-02T12:46:16.448Z,15.10
2023-05-02T12:48:27.524Z,15.00
2023-05-02T12:50:43.825Z,15.30
2023-05-02T12:53:01.473Z,15.50
2023-05-02T12:55:23.135Z,15.10
2023-05-02T12:57:30.287Z,15.10
2023-05-02T12:59:35.351Z,15.70
2023-05-02T13:01:42.194Z,16.00
2023-05-02T13:03:48.133Z,16.20
2023-05-02T13:05:59.492Z,15.90
2023-05-02T13:08:07.370Z,15.70
2023-05-02T13:10:13.472Z,16.00
2023-05-02T13:12:20.796Z,16.20
2023-05-02T13:14:25.766Z,16.30
2023-05-02T13:16:32.721Z,17.10
2023-05-02T13:18:38.631Z,16.50
2023-05-02T13:20:43.716Z,16.10
2023-05-02T13:22:53.668Z,15.90
2023-05-02T13:25:01.248Z,16.00
2023-05-02T13:27:06.620Z,16.60
2023-05-02T13:29:12.866Z,16.50
2023-05-02T13:31:19.939Z,16.40
2023-05-02T13:33:27.632Z,16.60
2023-05-02T13:35:34.062Z,16.70
2023-05-02T13:37:41.555Z,17.90
2023-05-02T13:39:49.226Z,17.70
2023-05-02T13:41:54.289Z,17.20
2023-05-02T13:43:59.162Z,16.80
2023-05-02T13:46:06.307Z,16.20
2023-05-02T13:48:12.725Z,16.60
2023-05-02T13:50:17.945Z,16.20
2023-05-02T13:52:22.805Z,16.30
2023-05-02T13:54:29.384Z,16.20
2023-05-02T13:56:37.339Z,16.20
2023-05-02T13:58:42.233Z,16.00
2023-05-02T14:00:49.146Z,16.30
2023-05-02T14:02:55.303Z,16.30
2023-05-02T14:05:01.070Z,16.60
2023-05-02T14:07:06.546Z,16.50
2023-05-02T14:09:11.745Z,16.30
2023-05-02T14:11:16.670Z,16.50
2023-05-02T14:13:27.020Z,16.10
2023-05-02T14:15:32.770Z,16.10
2023-05-02T14:17:41.187Z,15.90
2023-05-02T14:19:46.051Z,15.70
2023-05-02T14:21:50.909Z,15.50
2023-05-02T14:23:55.738Z,15.50
2023-05-02T14:26:01.696Z,15.60
2023-05-02T14:28:08.704Z,15.50
2023-05-02T14:30:17.578Z,15.00
2023-05-02T14:32:22.847Z,14.70
2023-05-02T14:34:27.740Z,14.80
2023-05-02T14:36:32.652Z,14.60
2023-05-02T14:38:37.883Z,14.50
2023-05-02T14:40:42.942Z,14.60
2023-05-02T14:42:50.872Z,14.60
2023-05-02T14:44:59.732Z,14.60
2023-05-02T14:47:09.073Z,14.90
2023-05-02T14:49:14.332Z,14.80
2023-05-02T14:51:19.124Z,14.90
2023-05-02T14:53:24.290Z,14.40
2023-05-02T14:55:30.916Z,14.50
2023-05-02T14:57:37.237Z,14.50
2023-05-02T14:59:46.645Z,14.20
2023-05-02T15:01:51.630Z,14.30
2023-05-02T15:04:06.857Z,14.30
2023-05-02T15:06:13.162Z,14.40
2023-05-02T15:08:18.496Z,14.20
2023-05-02T15:10:24.665Z,14.00
2023-05-02T15:12:30.988Z,14.00
2023-05-02T15:14:37.284Z,13.90
2023-05-02T15:16:42.495Z,13.70
2023-05-02T15:18:47.672Z,13.80
2023-05-02T15:20:56.089Z,13.40
2023-05-02T15:23:03.724Z,13.50
2023-05-02T15:25:12.940Z,13.60
2023-05-02T15:27:17.835Z,13.50
2023-05-02T15:29:22.761Z,13.50
2023-05-02T15:31:28.143Z,13.50
2023-05-02T15:33:33.053Z,13.50
2023-05-02T15:35:37.923Z,13.60
2023-05-02T15:37:45.766Z,13.80
2023-05-02T15:39:50.997Z,13.80
2023-05-02T15:41:57.060Z,14.10
2023-05-02T15:44:03.084Z,14.60
2023-05-02T15:46:08.176Z,14.60
2023-05-02T15:48:13.208Z,15.00
2023-05-02T15:50:18.836Z,15.00
2023-05-02T15:52:24.721Z,14.70
2023-05-02T15:54:33.329Z,14.40
2023-05-02T15:56:40.724Z,14.60
2023-05-02T15:58:45.733Z,14.30
2023-05-02T16:00:52.541Z,14.40
2023-05-02T16:02:57.698Z,13.70
2023-05-02T16:05:03.095Z,13.60
2023-05-02T16:07:08.200Z,13.50
2023-05-02T16:09:15.685Z,13.40
2023-05-02T16:11:25.074Z,13.40
2023-05-02T16:13:31.411Z,13.30
2023-05-02T16:15:36.989Z,13.20
2023-05-02T16:17:43.462Z,13.30
2023-05-02T16:19:52.697Z,13.20
2023-05-02T16:21:58.002Z,13.00
2023-05-02T16:24:03.236Z,13.30
2023-05-02T16:26:08.914Z,13.10
2023-05-02T16:28:16.305Z,13.00
2023-05-02T16:30:22.783Z,12.90
2023-05-02T16:32:28.263Z,13.20
2023-05-02T16:34:35.581Z,13.30
2023-05-02T16:36:41.997Z,13.50
2023-05-02T16:38:46.844Z,14.20
2023-05-02T16:40:52.000Z,14.30
2023-05-02T16:42:57.020Z,14.20
2023-05-02T16:45:11.205Z,14.50
2023-05-02T16:47:16.038Z,14.80
2023-05-02T16:49:21.447Z,14.60
2023-05-02T16:53:33.734Z,15.10
2023-05-02T16:55:38.589Z,15.30
2023-05-02T16:57:43.462Z,15.30
2023-05-02T16:59:49.306Z,15.70
2023-05-02T17:01:57.404Z,16.20
2023-05-02T17:04:02.369Z,18.00
2023-05-02T17:06:07.389Z,17.00
2023-05-02T17:08:12.252Z,18.40
2023-05-02T17:10:19.142Z,18.80
2023-05-02T17:12:28.436Z,18.80
2023-05-02T17:14:35.138Z,19.20
2023-05-02T17:16:39.966Z,19.10
2023-05-02T17:18:47.441Z,19.00
2023-05-02T17:20:52.999Z,18.20
2023-05-02T17:22:58.320Z,17.20
2023-05-02T17:25:03.243Z,16.10
2023-05-02T17:27:08.138Z,16.20
2023-05-02T17:29:15.957Z,15.90
2023-05-02T17:31:21.133Z,14.70
2023-05-02T17:33:26.835Z,14.10
2023-05-02T17:35:35.796Z,14.10
2023-05-02T17:37:42.736Z,13.50
2023-05-02T17:39:48.089Z,13.20
2023-05-02T17:42:00.343Z,13.20
2023-05-02T17:44:07.843Z,13.20
2023-05-02T17:46:13.673Z,12.90
2023-05-02T17:48:20.061Z,13.00
2023-05-02T17:50:24.973Z,13.00
2023-05-02T17:52:33.895Z,13.10
2023-05-02T17:54:39.363Z,12.90
2023-05-02T17:56:45.888Z,13.10
2023-05-02T17:58:56.591Z,12.80
2023-05-02T18:01:09.212Z,12.40
2023-05-02T18:03:14.276Z,12.70
2023-05-02T18:05:20.595Z,12.70
2023-05-02T18:07:29.125Z,12.60
2023-05-02T18:09:37.117Z,12.60
2023-05-02T18:11:42.163Z,12.50
2023-05-02T18:13:49.592Z,12.30
2023-05-02T18:15:58.467Z,12.40
2023-05-02T18:18:03.867Z,12.60
2023-05-02T18:20:10.842Z,12.40
2023-05-02T18:22:17.902Z,12.10
2023-05-02T18:24:26.173Z,12.00
2023-05-02T18:26:43.932Z,12.00
2023-05-02T18:28:53.599Z,12.00
2023-05-02T18:31:02.531Z,11.90
2023-05-02T18:33:10.748Z,12.00
2023-05-02T18:35:17.773Z,11.90
2023-05-02T18:37:27.738Z,11.80
2023-05-02T18:39:37.678Z,12.00
2023-05-02T18:41:45.694Z,11.90
2023-05-02T18:43:55.373Z,11.90
2023-05-02T18:46:01.069Z,11.90
2023-05-02T18:48:06.516Z,11.90
2023-05-02T18:50:12.039Z,11.80
2023-05-02T18:52:20.841Z,11.70
2023-05-02T18:54:29.032Z,11.70
2023-05-02T18:56:35.547Z,11.50
2023-05-02T18:58:45.752Z,11.50
2023-05-02T19:00:53.778Z,11.50
2023-05-02T19:03:03.136Z,11.40
2023-05-02T19:05:13.667Z,11.40
2023-05-02T19:07:21.075Z,11.40
2023-05-02T19:09:26.891Z,11.20
2023-05-02T19:11:31.719Z,11.30
2023-05-02T19:13:36.554Z,11.20
2023-05-02T19:15:45.727Z,11.00
2023-05-02T19:17:53.364Z,11.00
2023-05-02T19:19:58.481Z,10.90
2023-05-02T19:22:03.929Z,10.90
2023-05-02T19:24:13.329Z,11.10
2023-05-02T19:26:20.154Z,11.10
2023-05-02T19:28:24.970Z,11.10
2023-05-02T19:30:31.703Z,10.80
2023-05-02T19:32:46.307Z,10.70
2023-05-02T19:34:51.134Z,10.70
2023-05-02T19:36:57.487Z,10.60
2023-05-02T19:39:04.314Z,10.50
2023-05-02T19:41:10.008Z,10.50
2023-05-02T19:43:16.758Z,10.40
2023-05-02T19:45:24.231Z,10.30
2023-05-02T19:47:30.115Z,10.10
2023-05-02T19:49:37.674Z,10.10
2023-05-02T19:51:44.555Z,10.10
2023-05-02T19:53:49.726Z,10.10
2023-05-02T19:55:55.258Z,10.00
2023-05-02T19:58:00.488Z,9.90
2023-05-02T20:00:05.326Z,9.90
2023-05-02T20:02:17.372Z,9.70
2023-05-02T20:04:26.371Z,9.70
2023-05-02T20:06:34.438Z,9.70
2023-05-02T20:08:40.589Z,9.70
2023-05-02T20:10:48.673Z,9.60
2023-05-02T20:12:54.511Z,9.60
2023-05-02T20:14:59.360Z,9.60
2023-05-02T20:17:04.807Z,9.50
2023-05-02T20:19:09.725Z,9.50
2023-05-02T20:21:14.676Z,9.50
2023-05-02T20:23:28.169Z,9.40
2023-05-02T20:25:35.972Z,9.50
2023-05-02T20:27:41.244Z,9.40
2023-05-02T20:29:46.331Z,9.40
2023-05-02T20:31:55.191Z,9.20
2023-05-02T20:34:04.485Z,9.20
2023-05-02T20:36:11.192Z,9.30
2023-05-02T20:38:17.855Z,9.30
2023-05-02T20:40:27.851Z,9.20
2023-05-02T20:42:33.920Z,9.10
2023-05-02T20:44:39.257Z,9.10
2023-05-02T20:46:45.069Z,9.10
2023-05-02T20:48:50.199Z,9.10
2023-05-02T20:50:56.400Z,8.90
2023-05-02T20:53:01.586Z,9.00
2023-05-02T20:55:08.073Z,8.90
2023-05-02T20:57:16.364Z,8.90
2023-05-02T20:59:22.850Z,9.00
2023-05-02T21:01:29.252Z,8.90
2023-05-02T21:03:36.782Z,9.00
2023-05-02T21:05:41.964Z,8.80
2023-05-02T21:07:47.179Z,8.80
2023-05-02T21:09:55.936Z,8.90
2023-05-02T21:12:00.781Z,8.90
2023-05-02T21:14:10.249Z,8.90
2023-05-02T21:16:24.867Z,8.80
2023-05-02T21:18:29.676Z,8.70
2023-05-02T21:20:42.018Z,8.40
2023-05-02T21:22:49.244Z,8.40
2023-05-02T21:24:55.494Z,8.40
2023-05-02T21:27:02.161Z,8.30
2023-05-02T21:29:10.972Z,8.50
2023-05-02T21:31:16.329Z,8.40
2023-05-02T21:33:21.549Z,8.40
2023-05-02T21:35:28.814Z,8.10
2023-05-02T21:37:35.607Z,8.40
2023-05-02T21:39:41.532Z,8.50
2023-05-02T21:41:46.874Z,8.40
2023-05-02T21:43:56.855Z,8.20
2023-05-02T21:46:04.297Z,8.00
2023-05-02T21:48:09.524Z,8.10
2023-05-02T21:50:14.514Z,8.00
2023-05-02T21:52:19.373Z,8.20
2023-05-02T21:54:25.874Z,8.20
2023-05-02T21:56:34.729Z,8.10
2023-05-02T21:58:39.979Z,8.20
2023-05-02T22:00:48.049Z,8.10
2023-05-02T22:02:58.790Z,8.20
2023-05-02T22:05:04.859Z,7.90
2023-05-02T22:07:09.717Z,7.90
2023-05-02T22:09:14.567Z,7.90
2023-05-02T22:11:21.778Z,8.00
2023-05-02T22:13:27.015Z,7.70
2023-05-02T22:15:34.257Z,7.60
2023-05-02T22:17:42.740Z,7.80
2023-05-02T22:19:53.647Z,7.80
2023-05-02T22:22:01.875Z,7.90
2023-05-02T22:24:08.626Z,7.80
2023-05-02T22:26:13.423Z,7.10
2023-05-02T22:28:23.191Z,7.40
2023-05-02T22:30:30.615Z,7.60
2023-05-02T22:32:39.626Z,7.50
2023-05-02T22:34:44.460Z,7.30
2023-05-02T22:36:52.143Z,7.20
2023-05-02T22:38:57.340Z,7.10
2023-05-02T22:41:08.948Z,6.30
2023-05-02T22:43:15.112Z,6.40
2023-05-02T22:45:20.443Z,6.80
2023-05-02T22:47:27.079Z,7.20
2023-05-02T22:49:33.369Z,7.00
2023-05-02T22:51:41.651Z,7.20
2023-05-02T22:53:50.761Z,7.30
2023-05-02T22:55:56.688Z,7.00
2023-05-02T22:58:03.535Z,7.20
2023-05-02T23:00:10.434Z,6.90
2023-05-02T23:02:15.836Z,6.60
2023-05-02T23:04:22.143Z,6.80
2023-05-02T23:06:29.271Z,7.00
2023-05-02T23:08:34.832Z,7.00
2023-05-02T23:10:42.611Z,7.10
2023-05-02T23:12:47.427Z,7.20
2023-05-02T23:14:52.266Z,7.10
2023-05-02T23:16:57.157Z,6.80
2023-05-02T23:19:04.197Z,6.80
2023-05-02T23:21:16.772Z,6.80
2023-05-02T23:23:22.616Z,6.90
2023-05-02T23:25:29.561Z,6.90
2023-05-02T23:27:39.082Z,6.60
2023-05-02T23:29:46.488Z,6.60
2023-05-02T23:31:54.596Z,6.70
2023-05-02T23:34:01.241Z,6.80
2023-05-02T23:36:06.930Z,6.70
2023-05-02T23:38:11.768Z,6.70
2023-05-02T23:40:16.892Z,6.60
2023-05-02T23:42:24.585Z,6.70
2023-05-02T23:44:32.533Z,6.60
2023-05-02T23:46:37.400Z,6.40
2023-05-02T23:48:44.868Z,6.30
2023-05-02T23:50:50.535Z,5.90
2023-05-02T23:52:55.493Z,6.10
2023-05-02T23:55:00.877Z,6.10
2023-05-02T23:57:06.148Z,6.10
2023-05-02T23:59:12.616Z,6.10
